Terminal Aerodrome Forecast
Issued by NWS

Home | Current Version | Previous Version | Text Only | Print | Product List | Glossary On
Versions: 1 2 3 4 5 6 7 8 9 10 11 12 13 14 15 16 17
492
FTUS41 KPBZ 032320
TAFBVI
TAF
KBVI 032320Z 0400/0424 VRB04KT P6SM BKN025
     FM040200 VRB05KT P6SM BKN060
     FM041900 22005KT P6SM VCSH BKN050
      AMD NOT SKED 0402/0412=

USA.gov is the U.S. government's official web portal to all federal, state and local government web resources and services.